Time;durP1;ratioP1;P1;durP2;ratioP2;P2;SDS_P1;SDS_P2;PMS_P1;PMS_P2;Temp;Humidity;BMP_temperature;BMP_pressure;BME280_temperature;BME280_humidity;BME280_pressure;Samples;Min_cycle;Max_cycle;Signal;HPM_P1;HPM_P2
2022/05/24 00:01:26;;;;;;;6.43;4.65;;;8.00;99.90;;;;;;5093828;28;20024;-94
2022/05/24 00:03:52;;;;;;;5.68;5.13;;;8.00;99.90;;;;;;5093629;28;20077;-94
2022/05/24 00:06:18;;;;;;;9.43;5.50;;;8.00;99.90;;;;;;5093735;28;20085;-94
2022/05/24 00:08:44;;;;;;;8.98;5.65;;;7.90;99.90;;;;;;5093365;28;20408;-93
2022/05/24 00:11:10;;;;;;;7.88;5.50;;;7.90;99.90;;;;;;5093977;28;20111;-94
2022/05/24 00:13:36;;;;;;;6.57;4.80;;;7.90;99.90;;;;;;5093344;28;20044;-93
2022/05/24 00:16:03;;;;;;;7.40;5.00;;;7.90;99.90;;;;;;5093467;28;20024;-94
2022/05/24 00:18:30;;;;;;;8.07;5.50;;;7.80;99.90;;;;;;5093391;28;20120;-93
2022/05/24 00:21:01;;;;;;;5.53;4.88;;;7.80;99.90;;;;;;5093239;28;20070;-93
2022/05/24 00:23:28;;;;;;;6.13;5.07;;;7.80;99.90;;;;;;5094144;28;20413;-93
2022/05/24 00:25:58;;;;;;;6.88;5.60;;;7.70;99.90;;;;;;5093421;28;20485;-94
2022/05/24 00:28:26;;;;;;;6.78;5.60;;;7.70;99.90;;;;;;5093478;28;20078;-93
2022/05/24 00:30:52;;;;;;;7.43;5.55;;;7.70;99.90;;;;;;5093340;28;20077;-94
2022/05/24 00:33:21;;;;;;;6.50;5.00;;;7.60;99.90;;;;;;5094044;28;20485;-93
2022/05/24 00:35:47;;;;;;;7.80;5.25;;;7.60;99.90;;;;;;5094809;28;20109;-93
2022/05/24 00:38:17;;;;;;;8.30;5.30;;;7.60;99.90;;;;;;5097773;28;20028;-93
2022/05/24 00:40:46;;;;;;;10.00;5.53;;;7.60;99.90;;;;;;5097493;28;20024;-93
2022/05/24 00:43:37;;;;;;;7.95;5.78;;;7.60;99.90;;;;;;5097191;28;20424;-93
2022/05/24 00:46:07;;;;;;;;;;;7.60;99.90;;;;;;5097561;28;20024;-92
2022/05/24 00:48:36;;;;;;;7.05;5.32;;;7.50;99.90;;;;;;5097152;28;19907;-92
2022/05/24 00:51:05;;;;;;;8.60;5.72;;;7.50;99.90;;;;;;5097262;28;20034;-92
2022/05/24 00:53:39;;;;;;;7.57;6.07;;;7.50;99.90;;;;;;5096942;28;20031;-92
2022/05/24 00:56:10;;;;;;;7.15;5.75;;;7.40;99.90;;;;;;5097247;28;20427;-91
2022/05/24 00:58:46;;;;;;;6.50;5.90;;;7.40;99.90;;;;;;5097513;28;20038;-91
2022/05/24 01:01:21;;;;;;;8.02;5.70;;;7.40;99.90;;;;;;5096906;28;20028;-91
2022/05/24 01:03:47;;;;;;;7.43;5.63;;;7.40;99.90;;;;;;5096843;28;20024;-90
2022/05/24 01:06:13;;;;;;;5.97;5.38;;;7.40;99.90;;;;;;5096701;28;20028;-90
2022/05/24 01:08:39;;;;;;;6.82;5.60;;;7.40;99.90;;;;;;5096720;28;20032;-90
2022/05/24 01:11:06;;;;;;;8.05;6.18;;;7.40;99.90;;;;;;5096619;28;20024;-90
2022/05/24 01:13:32;;;;;;;7.50;6.05;;;7.40;99.90;;;;;;5096807;28;20028;-90
2022/05/24 01:15:58;;;;;;;7.50;5.57;;;7.40;99.90;;;;;;5096779;28;20016;-91
2022/05/24 01:18:24;;;;;;;7.50;5.60;;;7.40;99.90;;;;;;5096579;28;20016;-91
2022/05/24 01:21:03;;;;;;;8.02;5.38;;;7.50;99.90;;;;;;5097045;28;20022;-91
2022/05/24 01:23:36;;;;;;;9.68;5.85;;;7.50;99.90;;;;;;5096793;28;20020;-91
2022/05/24 01:26:37;;;;;;;7.15;5.82;;;7.50;99.90;;;;;;5096446;28;20028;-91
2022/05/24 01:29:09;;;;;;;7.93;5.70;;;7.60;99.90;;;;;;5096277;28;20020;-91
2022/05/24 01:37:07;;;;;;;6.03;5.07;;;7.80;99.90;;;;;;5097525;28;20035;-91
2022/05/24 01:39:42;;;;;;;7.93;5.50;;;8.00;99.90;;;;;;5096472;28;20077;-91
2022/05/24 01:42:09;;;;;;;8.27;5.65;;;8.10;99.90;;;;;;5095955;28;20020;-91
2022/05/24 01:45:04;;;;;;;7.03;5.55;;;8.10;99.90;;;;;;5096120;28;20390;-91
2022/05/24 01:47:31;;;;;;;7.80;5.60;;;8.20;99.90;;;;;;5091204;28;20031;-92
2022/05/24 01:50:05;;;;;;;9.43;5.85;;;8.20;99.90;;;;;;5096201;28;20032;-91
2022/05/24 01:52:34;;;;;;;8.45;5.70;;;8.30;99.90;;;;;;5096646;28;20028;-91
2022/05/24 01:55:16;;;;;;;10.73;5.50;;;8.30;99.90;;;;;;5096601;28;20024;-92
2022/05/24 01:57:47;;;;;;;7.22;5.57;;;8.40;99.90;;;;;;5095797;28;20136;-91
2022/05/24 02:00:14;;;;;;;6.63;5.18;;;8.50;99.90;;;;;;5095758;28;20076;-91
2022/05/24 02:02:42;;;;;;;6.97;5.30;;;8.60;99.90;;;;;;5095810;28;20047;-91
2022/05/24 02:05:08;;;;;;;6.70;5.10;;;8.60;99.90;;;;;;5095922;28;20024;-91
2022/05/24 02:07:34;;;;;;;8.90;6.13;;;8.70;99.90;;;;;;5095638;28;20063;-91
2022/05/24 02:10:00;;;;;;;7.68;5.47;;;8.60;99.90;;;;;;5095599;28;20491;-91
2022/05/24 02:12:38;;;;;;;7.10;5.30;;;8.60;99.90;;;;;;5095533;28;20482;-91
2022/05/24 02:15:10;;;;;;;8.00;5.93;;;8.60;99.90;;;;;;5095121;28;20056;-91
2022/05/24 02:17:47;;;;;;;10.30;6.10;;;8.50;99.90;;;;;;5096530;28;20017;-91
2022/05/24 02:20:18;;;;;;;8.32;5.18;;;8.50;99.90;;;;;;5095586;28;20531;-91
2022/05/24 02:22:45;;;;;;;7.78;5.32;;;8.40;99.90;;;;;;5095581;28;20020;-91
2022/05/24 02:25:18;;;;;;;8.80;5.75;;;8.40;99.90;;;;;;5095132;28;20024;-91
2022/05/24 02:27:45;;;;;;;7.88;5.85;;;8.30;99.90;;;;;;5095255;28;20020;-91
2022/05/24 02:30:26;;;;;;;8.93;6.10;;;8.30;99.90;;;;;;5095151;28;20028;-90
2022/05/24 02:32:52;;;;;;;8.52;5.97;;;8.20;99.90;;;;;;5095236;28;20498;-91
2022/05/24 02:35:18;;;;;;;7.75;5.68;;;8.20;99.90;;;;;;5094919;28;20110;-91
2022/05/24 02:37:44;;;;;;;6.80;5.55;;;8.20;99.90;;;;;;5095115;28;20020;-90
2022/05/24 02:42:54;;;;;;;8.15;5.75;;;8.30;99.90;;;;;;5096345;28;20038;-91
2022/05/24 02:45:20;;;;;;;5.60;4.93;;;8.30;99.90;;;;;;5094901;28;20027;-91
2022/05/24 02:47:46;;;;;;;5.90;5.30;;;8.30;99.90;;;;;;5095280;28;20032;-90
2022/05/24 02:50:12;;;;;;;7.22;5.75;;;8.40;99.90;;;;;;5094988;28;20079;-91
2022/05/24 02:52:39;;;;;;;6.90;5.20;;;8.50;99.90;;;;;;5095449;28;20078;-91
2022/05/24 02:55:06;;;;;;;7.47;4.93;;;8.70;99.90;;;;;;5094596;28;20031;-91
2022/05/24 02:57:32;;;;;;;6.13;5.07;;;8.80;99.90;;;;;;5094348;28;20471;-91
2022/05/24 02:59:57;;;;;;;6.82;5.00;;;8.90;99.90;;;;;;5094362;28;20028;-91
2022/05/24 03:02:26;;;;;;;6.00;4.97;;;9.10;99.90;;;;;;5094361;28;20028;-90
2022/05/24 03:04:52;;;;;;;6.43;5.30;;;9.30;99.90;;;;;;5094539;28;20364;-91
2022/05/24 03:10:06;;;;;;;6.13;5.03;;;9.50;99.90;;;;;;5096020;28;20074;-91
2022/05/24 03:15:16;;;;;;;7.30;5.32;;;9.70;99.90;;;;;;5095240;28;20055;-91
2022/05/24 03:17:42;;;;;;;5.70;4.78;;;9.90;99.90;;;;;;5094537;28;20024;-92
2022/05/24 03:20:08;;;;;;;6.10;5.35;;;9.90;99.90;;;;;;5094323;28;20073;-91
2022/05/24 03:22:34;;;;;;;7.65;4.85;;;10.10;99.90;;;;;;5093974;28;20028;-91
2022/05/24 03:24:59;;;;;;;5.97;5.05;;;10.10;99.90;;;;;;5093949;28;20174;-92
2022/05/24 03:27:25;;;;;;;7.78;5.32;;;10.20;99.90;;;;;;5093784;28;20027;-91
2022/05/24 03:29:50;;;;;;;5.32;4.63;;;10.20;99.90;;;;;;5093939;28;20509;-91
2022/05/24 03:32:18;;;;;;;4.90;4.20;;;10.20;99.90;;;;;;5093907;28;20115;-92
2022/05/24 03:34:44;;;;;;;7.43;4.93;;;10.30;99.90;;;;;;5095006;28;20024;-92
2022/05/24 03:37:10;;;;;;;7.53;4.60;;;10.40;99.90;;;;;;5093889;28;20046;-91
2022/05/24 03:39:36;;;;;;;8.82;4.95;;;10.50;99.90;;;;;;5094000;28;20032;-92
2022/05/24 03:42:03;;;;;;;7.82;4.70;;;10.50;99.90;;;;;;5094056;28;20055;-91
2022/05/24 03:44:29;;;;;;;8.98;4.82;;;10.70;99.90;;;;;;5094155;28;20141;-91
2022/05/24 03:46:55;;;;;;;9.68;4.93;;;10.70;99.90;;;;;;5093666;28;20028;-93
2022/05/24 03:49:22;;;;;;;7.38;4.50;;;10.90;99.40;;;;;;5093818;28;20127;-92
2022/05/24 03:51:47;;;;;;;5.75;5.00;;;11.00;99.50;;;;;;5093838;28;20470;-92
2022/05/24 03:54:13;;;;;;;7.93;4.70;;;11.10;98.30;;;;;;5093726;28;20034;-92
2022/05/24 03:57:59;;;;;;;7.47;4.55;;;11.20;98.70;;;;;;5094029;28;20052;-93
2022/05/24 03:59:26;;;;;;;10.75;4.55;;;11.20;98.30;;;;;;5094698;28;20021;-92
2022/05/24 04:01:52;;;;;;;7.95;4.55;;;11.30;97.60;;;;;;5094035;28;20020;-94
2022/05/24 04:04:17;;;;;;;5.45;4.40;;;11.40;96.60;;;;;;5093468;28;20081;-93
2022/05/24 04:06:43;;;;;;;8.30;4.88;;;11.40;96.90;;;;;;5093642;28;20019;-92
2022/05/24 04:09:09;;;;;;;4.97;4.40;;;11.50;96.70;;;;;;5093247;28;20111;-93
2022/05/24 04:11:35;;;;;;;7.25;4.50;;;11.60;96.40;;;;;;5093521;28;20051;-92
2022/05/24 04:14:01;;;;;;;5.75;4.28;;;11.70;96.00;;;;;;5093000;28;20055;-92
2022/05/24 04:16:27;;;;;;;7.78;4.43;;;11.70;96.10;;;;;;5093410;28;20024;-93
2022/05/24 04:18:53;;;;;;;12.23;4.78;;;11.80;96.10;;;;;;5093495;28;20107;-93
2022/05/24 04:21:19;;;;;;;6.13;4.70;;;11.90;95.70;;;;;;5093361;28;20078;-93
2022/05/24 04:23:44;;;;;;;7.85;4.38;;;12.00;95.40;;;;;;5093177;28;20089;-92
2022/05/24 04:26:10;;;;;;;7.43;4.68;;;12.10;94.10;;;;;;5093341;28;20055;-92
2022/05/24 04:28:36;;;;;;;5.95;4.18;;;12.20;94.00;;;;;;5093973;28;20024;-92
2022/05/24 04:31:03;;;;;;;6.65;4.60;;;12.30;93.80;;;;;;5093158;28;20450;-92
2022/05/24 04:33:29;;;;;;;5.60;4.38;;;12.50;92.90;;;;;;5093301;28;20070;-94
2022/05/24 04:35:56;;;;;;;7.65;4.40;;;12.60;92.80;;;;;;5093393;28;20416;-94
2022/05/24 04:38:22;;;;;;;8.20;4.47;;;12.80;92.00;;;;;;5093109;28;20020;-93
2022/05/24 04:43:32;;;;;;;6.90;4.22;;;13.00;91.10;;;;;;5094759;28;20066;-93
2022/05/24 04:45:58;;;;;;;8.45;4.30;;;13.10;91.30;;;;;;5093197;28;20463;-93
2022/05/24 04:48:23;;;;;;;8.13;5.10;;;13.30;90.90;;;;;;5093119;28;20024;-92
2022/05/24 04:50:54;;;;;;;8.93;5.03;;;13.40;90.50;;;;;;5093118;28;20111;-91
2022/05/24 04:53:20;;;;;;;6.53;4.30;;;13.50;90.00;;;;;;5093021;28;20017;-92
2022/05/24 04:55:47;;;;;;;5.35;4.32;;;13.60;90.30;;;;;;5093034;28;20029;-92
2022/05/24 04:58:13;;;;;;;9.63;4.88;;;13.70;89.40;;;;;;5092968;28;20474;-93
2022/05/24 05:00:39;;;;;;;4.80;4.30;;;13.80;88.00;;;;;;5093146;28;20039;-94
2022/05/24 05:03:13;;;;;;;7.05;4.75;;;13.90;89.30;;;;;;5093096;28;20020;-94
2022/05/24 05:05:39;;;;;;;5.57;4.55;;;14.00;87.00;;;;;;5093028;28;20024;-95
2022/05/24 05:08:05;;;;;;;4.93;4.07;;;14.10;88.00;;;;;;5093116;28;20081;-93
2022/05/24 05:10:34;;;;;;;6.28;4.25;;;14.20;87.20;;;;;;5092900;28;20031;-92
2022/05/24 05:13:03;;;;;;;6.80;4.50;;;14.30;87.30;;;;;;5092837;28;20028;-92
2022/05/24 05:15:29;;;;;;;6.00;4.13;;;14.40;86.40;;;;;;5092866;28;20048;-93
2022/05/24 05:18:06;;;;;;;8.13;4.50;;;14.50;83.50;;;;;;5092918;28;20027;-92
2022/05/24 05:20:33;;;;;;;5.53;4.25;;;14.60;84.90;;;;;;5092925;28;20047;-93
2022/05/24 05:22:58;;;;;;;6.97;4.40;;;14.60;86.00;;;;;;5095984;28;20115;-92
2022/05/24 05:25:24;;;;;;;5.72;4.38;;;14.70;85.60;;;;;;5096480;28;20442;-90
2022/05/24 05:27:50;;;;;;;5.82;4.63;;;14.80;85.50;;;;;;5096593;28;20374;-90
2022/05/24 05:33:21;;;;;;;6.43;4.53;;;14.90;85.70;;;;;;5099433;28;20115;-90
2022/05/24 05:35:47;;;;;;;8.05;5.07;;;15.00;85.60;;;;;;5094960;28;20050;-90
2022/05/24 05:38:14;;;;;;;5.30;4.68;;;15.00;85.90;;;;;;5094674;28;20059;-90
2022/05/24 05:40:40;;;;;;;6.40;4.80;;;15.10;85.60;;;;;;5094445;28;20030;-89
2022/05/24 05:43:05;;;;;;;5.13;4.63;;;15.00;85.50;;;;;;5094519;28;20066;-88
2022/05/24 05:45:31;;;;;;;11.95;4.75;;;15.00;86.00;;;;;;5094782;28;20036;-92
2022/05/24 15:20:49;;;;;;;8.52;5.07;;;22.50;39.00;;;;;;5111204;27;20377;-81
2022/05/24 15:23:21;;;;;;;11.07;5.13;;;22.10;39.70;;;;;;5111335;28;20081;-82
2022/05/24 15:25:52;;;;;;;7.22;4.60;;;21.90;40.40;;;;;;5109911;28;20024;-82
2022/05/24 15:28:20;;;;;;;10.20;5.65;;;21.80;40.00;;;;;;5109956;28;20024;-82
2022/05/24 16:12:21;;;;;;;6.07;4.30;;;19.40;46.30;;;;;;5111431;28;20035;-82
2022/05/24 16:14:48;;;;;;;6.95;4.20;;;19.30;46.60;;;;;;5109983;28;20024;-83
2022/05/24 16:17:16;;;;;;;8.50;4.70;;;19.20;46.50;;;;;;5109792;28;20020;-83
2022/05/24 16:19:43;;;;;;;14.90;8.13;;;19.20;46.60;;;;;;5109811;28;20021;-83
2022/05/24 16:22:09;;;;;;;7.13;4.65;;;19.10;46.70;;;;;;5111728;28;20020;-86
2022/05/24 16:24:35;;;;;;;4.15;3.58;;;19.10;46.90;;;;;;5111608;28;20455;-87
2022/05/24 16:27:03;;;;;;;6.22;3.58;;;19.10;47.10;;;;;;5110622;28;20110;-86
2022/05/24 16:29:29;;;;;;;4.28;3.22;;;19.10;47.10;;;;;;5110171;28;20058;-88
2022/05/24 16:31:54;;;;;;;5.20;3.80;;;19.00;46.90;;;;;;5110607;28;20055;-85
2022/05/24 16:34:20;;;;;;;5.50;3.58;;;19.00;47.00;;;;;;5110450;28;20054;-88
2022/05/24 16:36:46;;;;;;;10.05;8.20;;;19.00;47.10;;;;;;5110534;28;20024;-87
2022/05/24 16:39:12;;;;;;;6.20;4.10;;;19.00;47.00;;;;;;5111290;28;20020;-87
2022/05/24 16:41:38;;;;;;;8.15;3.42;;;19.00;46.50;;;;;;5111463;28;20020;-87
2022/05/24 16:44:04;;;;;;;4.53;3.50;;;19.00;46.70;;;;;;5110207;28;20024;-89
2022/05/24 16:46:31;;;;;;;11.70;5.40;;;18.90;47.00;;;;;;5110123;28;20444;-88
2022/05/24 16:48:57;;;;;;;10.57;5.93;;;18.90;46.70;;;;;;5111206;28;20095;-90
2022/05/24 16:51:46;;;;;;;10.80;4.93;;;18.80;47.00;;;;;;5110226;28;20077;-90
2022/05/24 16:59:40;;;;;;;28.38;11.50;;;18.60;47.90;;;;;;5110804;28;20038;-86
2022/05/24 17:02:07;;;;;;;3.60;3.30;;;18.50;49.20;;;;;;5110854;28;20099;-88
2022/05/24 17:04:33;;;;;;;4.15;3.30;;;18.40;48.20;;;;;;5110090;28;20116;-87
2022/05/24 17:07:00;;;;;;;16.30;6.45;;;18.30;48.10;;;;;;5109586;28;20064;-87
2022/05/24 17:09:25;;;;;;;13.25;5.70;;;18.30;50.00;;;;;;5109362;28;20079;-87
2022/05/24 17:11:51;;;;;;;11.07;4.90;;;18.10;50.20;;;;;;5110633;28;20051;-86
2022/05/24 17:14:17;;;;;;;9.55;4.72;;;18.00;49.90;;;;;;5109218;28;20111;-90
2022/05/24 17:16:42;;;;;;;8.15;4.15;;;18.00;52.20;;;;;;5109768;28;20070;-88
2022/05/24 17:19:11;;;;;;;6.65;3.85;;;17.80;52.80;;;;;;5108876;28;20417;-94
2022/05/24 17:21:37;;;;;;;9.65;3.85;;;17.60;53.20;;;;;;5096534;28;20051;-93
2022/05/24 17:24:04;;;;;;;6.30;3.45;;;17.50;53.50;;;;;;5096877;28;20051;-93
2022/05/24 17:26:29;;;;;;;7.65;4.00;;;17.40;54.10;;;;;;5097090;28;20028;-93
2022/05/24 17:28:55;;;;;;;3.47;3.17;;;17.20;54.20;;;;;;5096474;28;20047;-92
2022/05/24 17:31:21;;;;;;;4.57;2.75;;;17.00;54.50;;;;;;5096514;28;20082;-91
2022/05/24 17:33:47;;;;;;;4.95;3.00;;;16.90;54.90;;;;;;5097538;28;20024;-94
2022/05/24 17:36:12;;;;;;;3.55;3.00;;;16.80;55.40;;;;;;5100303;28;20107;-96
2022/05/24 17:38:38;;;;;;;3.55;2.60;;;16.60;55.70;;;;;;5098356;28;20024;-94
2022/05/24 17:41:17;;;;;;;3.25;2.50;;;16.50;55.10;;;;;;5096993;28;20466;-91
2022/05/24 17:43:44;;;;;;;2.70;2.45;;;16.30;55.70;;;;;;5097548;28;20489;-96
2022/05/24 17:46:14;;;;;;;3.47;2.67;;;16.20;55.80;;;;;;5097892;28;20028;-92
2022/05/24 17:48:44;;;;;;;6.32;2.60;;;16.10;56.60;;;;;;5096147;28;20081;-94
2022/05/24 17:51:09;;;;;;;4.70;2.33;;;16.00;57.30;;;;;;5098316;28;20032;-93
2022/05/24 17:53:36;;;;;;;4.65;2.78;;;15.90;57.30;;;;;;5096912;28;20020;-91
2022/05/24 17:56:02;;;;;;;4.57;2.72;;;15.80;57.70;;;;;;5096022;28;20016;-94
2022/05/24 17:58:28;;;;;;;4.05;3.00;;;15.70;58.10;;;;;;5095657;28;20028;-90
2022/05/24 18:00:56;;;;;;;8.95;3.00;;;15.60;58.40;;;;;;5096017;28;20032;-91
2022/05/24 18:03:22;;;;;;;3.30;2.70;;;15.40;58.50;;;;;;5095485;28;20035;-93
2022/05/24 18:05:48;;;;;;;5.68;3.20;;;15.30;58.60;;;;;;5095348;28;20024;-92
2022/05/24 18:08:14;;;;;;;9.73;4.40;;;15.20;59.10;;;;;;5095113;28;20047;-90
2022/05/24 18:10:40;;;;;;;9.75;5.72;;;15.10;60.60;;;;;;5095469;28;20024;-91
2022/05/24 18:13:08;;;;;;;10.52;6.50;;;14.90;60.20;;;;;;5095927;28;20032;-87
2022/05/24 18:15:34;;;;;;;13.70;7.05;;;14.80;60.60;;;;;;5094947;28;20031;-88
2022/05/24 18:18:00;;;;;;;18.05;7.30;;;14.70;60.60;;;;;;5094854;28;20367;-87
2022/05/24 18:20:26;;;;;;;12.35;7.03;;;14.60;61.00;;;;;;5094998;28;20109;-91
2022/05/24 18:23:27;;;;;;;11.23;6.50;;;14.50;61.20;;;;;;5095199;28;20031;-90
2022/05/24 18:34:20;;;;;;;12.30;6.95;;;14.10;62.20;;;;;;5096424;28;20093;-90
2022/05/24 18:36:49;;;;;;;11.27;7.25;;;14.00;62.40;;;;;;5095879;28;20074;-91
2022/05/24 18:39:15;;;;;;;13.20;7.18;;;13.90;62.80;;;;;;5095323;28;20031;-90
2022/05/24 18:41:40;;;;;;;15.18;7.50;;;13.80;63.90;;;;;;5093384;28;20028;-91
2022/05/24 18:44:06;;;;;;;12.93;7.05;;;13.70;64.60;;;;;;5094266;28;20050;-90
2022/05/24 18:46:32;;;;;;;14.73;6.43;;;13.60;65.20;;;;;;5093577;28;20047;-91
2022/05/24 18:48:58;;;;;;;11.95;7.35;;;13.60;64.70;;;;;;5095156;28;20042;-90
2022/05/24 18:51:24;;;;;;;14.15;7.35;;;13.50;66.40;;;;;;5093815;28;20094;-90
2022/05/24 18:53:49;;;;;;;15.98;6.35;;;13.40;66.70;;;;;;5094407;28;20020;-91
2022/05/24 18:56:15;;;;;;;14.15;6.20;;;13.30;66.10;;;;;;5094755;28;20028;-91
2022/05/24 18:58:41;;;;;;;9.98;5.60;;;13.20;66.40;;;;;;5094292;28;20053;-88
2022/05/24 19:01:09;;;;;;;11.02;5.65;;;13.10;66.40;;;;;;5094387;28;20020;-89
2022/05/24 19:03:35;;;;;;;10.68;5.40;;;13.10;67.30;;;;;;5094045;28;20509;-89
2022/05/24 19:06:00;;;;;;;9.85;5.30;;;13.00;67.10;;;;;;5094316;28;20036;-89
2022/05/24 19:08:29;;;;;;;10.60;5.60;;;12.90;67.90;;;;;;5093747;28;20052;-90
2022/05/24 19:10:55;;;;;;;9.63;5.30;;;12.80;68.50;;;;;;5095060;28;20069;-88
2022/05/24 19:13:21;;;;;;;12.18;7.35;;;12.80;68.60;;;;;;5093867;28;20073;-88
2022/05/24 19:15:48;;;;;;;12.57;6.68;;;12.70;68.00;;;;;;5093777;28;20020;-88
2022/05/24 19:18:14;;;;;;;8.63;5.80;;;12.70;68.80;;;;;;5093828;28;20468;-88
2022/05/24 19:20:39;;;;;;;8.48;5.72;;;12.60;69.10;;;;;;5093750;28;20038;-88
2022/05/24 19:23:05;;;;;;;13.70;6.50;;;12.60;69.10;;;;;;5093754;28;20020;-88
2022/05/24 19:25:31;;;;;;;10.38;5.68;;;12.50;68.90;;;;;;5094889;28;20081;-88
2022/05/24 19:27:57;;;;;;;9.52;5.35;;;12.50;69.10;;;;;;5093707;28;20062;-88
2022/05/24 19:30:23;;;;;;;10.07;5.25;;;12.40;69.20;;;;;;5095089;28;20053;-88
2022/05/24 19:32:49;;;;;;;8.00;5.20;;;12.30;69.40;;;;;;5093614;28;20046;-88
2022/05/24 19:35:15;;;;;;;8.27;5.50;;;12.30;70.80;;;;;;5093631;28;20048;-88
2022/05/24 19:37:41;;;;;;;7.65;5.30;;;12.20;70.10;;;;;;5094644;28;20024;-88
2022/05/24 19:42:51;;;;;;;9.32;5.35;;;12.10;70.10;;;;;;5094763;28;20031;-88
2022/05/24 19:45:18;;;;;;;9.52;5.20;;;12.00;71.00;;;;;;5094262;28;20036;-88
2022/05/24 19:47:44;;;;;;;9.60;5.50;;;12.00;70.90;;;;;;5094432;28;20406;-88
2022/05/24 19:50:13;;;;;;;10.25;5.80;;;11.90;71.00;;;;;;5094449;28;20012;-88
2022/05/24 19:52:39;;;;;;;12.35;5.72;;;11.90;71.10;;;;;;5094497;28;20016;-88
2022/05/24 19:55:05;;;;;;;11.35;6.32;;;11.90;71.20;;;;;;5093359;28;20024;-88
2022/05/24 19:57:31;;;;;;;10.15;6.20;;;11.80;71.90;;;;;;5093355;28;20046;-88
2022/05/24 19:59:59;;;;;;;11.43;6.15;;;11.70;72.30;;;;;;5094300;28;20025;-88
2022/05/24 20:02:24;;;;;;;12.10;6.68;;;11.70;72.70;;;;;;5093441;28;20036;-88
2022/05/24 20:04:50;;;;;;;16.80;7.72;;;11.60;73.40;;;;;;5094568;28;20429;-88
2022/05/24 20:07:18;;;;;;;16.17;8.10;;;11.60;73.90;;;;;;5092926;28;20024;-88
2022/05/24 20:09:44;;;;;;;15.05;8.68;;;11.60;73.70;;;;;;5093091;28;20036;-89
2022/05/24 20:12:12;;;;;;;14.30;7.97;;;11.50;73.70;;;;;;5093110;28;20486;-88
2022/05/24 20:14:38;;;;;;;15.05;8.23;;;11.40;74.60;;;;;;5094295;28;20486;-88
2022/05/24 20:17:05;;;;;;;13.55;7.38;;;11.40;74.90;;;;;;5093171;28;20499;-88
2022/05/24 20:19:31;;;;;;;15.60;7.60;;;11.30;74.70;;;;;;5094151;28;20025;-88
2022/05/24 20:22:00;;;;;;;14.77;7.60;;;11.30;74.80;;;;;;5092995;28;20490;-89
2022/05/24 20:24:28;;;;;;;13.80;7.72;;;11.30;75.00;;;;;;5093091;28;20119;-88
2022/05/24 20:26:54;;;;;;;12.38;7.68;;;11.20;75.30;;;;;;5093286;28;20073;-88
2022/05/24 20:29:20;;;;;;;15.68;7.90;;;11.10;75.60;;;;;;5093002;28;20032;-88
2022/05/24 20:31:47;;;;;;;15.02;8.07;;;11.10;76.20;;;;;;5093046;28;20016;-88
2022/05/24 20:34:14;;;;;;;11.82;8.10;;;11.10;76.20;;;;;;5094164;28;20042;-88
2022/05/24 20:36:40;;;;;;;13.32;7.68;;;11.00;76.50;;;;;;5093103;28;20028;-88
2022/05/24 20:39:06;;;;;;;14.60;7.78;;;11.00;76.60;;;;;;5092984;28;20425;-88
2022/05/24 20:41:32;;;;;;;14.68;8.15;;;11.00;77.10;;;;;;5094098;28;20489;-88
2022/05/24 20:43:58;;;;;;;10.57;7.28;;;10.90;77.20;;;;;;5092913;28;20028;-88
2022/05/24 20:46:24;;;;;;;12.50;8.05;;;10.90;77.40;;;;;;5092903;28;20062;-88
2022/05/24 20:48:49;;;;;;;13.82;7.95;;;10.80;77.60;;;;;;5092810;28;20055;-88
2022/05/24 20:51:16;;;;;;;16.90;7.82;;;10.80;78.00;;;;;;5092576;28;20542;-88
2022/05/24 20:53:45;;;;;;;17.58;9.13;;;10.80;78.20;;;;;;5093864;28;20077;-88
2022/05/24 20:56:11;;;;;;;15.32;8.02;;;10.70;78.20;;;;;;5096271;28;20026;-88
2022/05/24 20:58:37;;;;;;;13.50;7.82;;;10.70;78.60;;;;;;5096837;28;20028;-88
2022/05/24 21:01:05;;;;;;;15.38;8.73;;;10.70;78.90;;;;;;5097572;28;20032;-88
2022/05/24 21:03:31;;;;;;;13.75;8.05;;;10.60;79.20;;;;;;5096480;28;20050;-88
2022/05/24 21:05:57;;;;;;;16.00;8.63;;;10.60;79.30;;;;;;5096569;28;20028;-88
2022/05/24 21:08:22;;;;;;;14.05;7.35;;;10.60;79.50;;;;;;5097350;28;20132;-88
2022/05/24 21:10:52;;;;;;;13.95;7.88;;;10.60;79.80;;;;;;5096445;28;20020;-88
2022/05/24 21:13:22;;;;;;;12.50;7.93;;;10.60;80.30;;;;;;5096388;28;20048;-88
2022/05/24 21:15:49;;;;;;;11.55;7.10;;;10.60;80.30;;;;;;5097560;28;20028;-88
2022/05/24 21:18:17;;;;;;;13.45;7.97;;;10.50;80.20;;;;;;5097254;28;20024;-88
2022/05/24 21:20:43;;;;;;;12.48;7.45;;;10.50;81.20;;;;;;5096168;28;20032;-88
2022/05/24 21:23:09;;;;;;;15.10;8.63;;;10.50;81.20;;;;;;5097300;28;20024;-88
2022/05/24 21:28:28;;;;;;;12.77;7.18;;;10.40;81.70;;;;;;5097351;28;20031;-88
2022/05/24 21:30:53;;;;;;;11.15;7.28;;;10.40;81.90;;;;;;5095802;28;20027;-88
2022/05/24 21:33:25;;;;;;;10.07;7.07;;;10.30;82.50;;;;;;5096062;28;20031;-88
2022/05/24 21:35:52;;;;;;;13.70;7.80;;;10.30;82.40;;;;;;5097167;28;20024;-88
2022/05/24 21:38:20;;;;;;;12.55;7.63;;;10.30;82.70;;;;;;5097320;28;20046;-88
2022/05/24 21:40:46;;;;;;;10.68;7.18;;;10.20;82.90;;;;;;5096101;28;20028;-88
2022/05/24 21:43:12;;;;;;;12.68;7.95;;;10.20;83.00;;;;;;5095467;28;20073;-88
2022/05/24 21:45:39;;;;;;;12.73;7.30;;;10.20;83.30;;;;;;5095744;28;20077;-88
2022/05/24 21:48:15;;;;;;;11.07;7.45;;;10.10;83.40;;;;;;5096734;28;20028;-88
2022/05/24 21:50:42;;;;;;;11.80;7.57;;;10.10;83.70;;;;;;5095631;28;20035;-88
2022/05/24 21:53:10;;;;;;;12.07;7.13;;;10.10;84.70;;;;;;5095678;28;20070;-88
2022/05/24 21:55:41;;;;;;;12.63;8.10;;;10.00;85.00;;;;;;5095490;28;20020;-88
2022/05/24 21:58:08;;;;;;;13.48;7.68;;;10.00;85.50;;;;;;5095427;28;20059;-88
2022/05/24 22:00:40;;;;;;;10.98;7.45;;;10.10;86.00;;;;;;5095347;28;20028;-88
2022/05/24 22:03:05;;;;;;;14.93;8.57;;;10.10;86.20;;;;;;5095466;28;20027;-88
2022/05/24 22:05:32;;;;;;;17.17;8.18;;;10.20;87.10;;;;;;5095327;28;20024;-88
2022/05/24 22:07:58;;;;;;;12.70;8.77;;;10.30;87.50;;;;;;5095196;28;20543;-88
2022/05/24 22:10:24;;;;;;;14.90;8.88;;;10.30;87.30;;;;;;5095109;28;20028;-88
2022/05/24 22:12:49;;;;;;;12.88;8.70;;;10.40;87.00;;;;;;5095080;28;20032;-88
2022/05/24 22:15:15;;;;;;;12.90;8.98;;;10.50;87.10;;;;;;5095163;28;20471;-88
2022/05/24 22:17:40;;;;;;;12.00;9.02;;;10.60;87.10;;;;;;5096343;28;20535;-88
2022/05/24 22:20:07;;;;;;;13.18;9.40;;;10.70;87.80;;;;;;5095250;28;20047;-88
2022/05/24 22:22:33;;;;;;;12.32;7.88;;;10.70;87.40;;;;;;5094945;28;20016;-88
2022/05/24 22:24:58;;;;;;;16.65;9.13;;;10.80;87.30;;;;;;5095002;28;20024;-88
2022/05/24 22:27:24;;;;;;;12.90;8.50;;;10.90;86.90;;;;;;5094780;28;20050;-88
2022/05/24 22:29:50;;;;;;;12.15;8.52;;;10.90;86.60;;;;;;5094846;28;20028;-88
2022/05/24 22:32:15;;;;;;;11.55;8.40;;;11.00;86.70;;;;;;5094823;28;20048;-88
2022/05/24 22:34:41;;;;;;;12.30;7.43;;;11.00;86.40;;;;;;5094875;28;20103;-88
2022/05/24 22:37:07;;;;;;;13.05;8.27;;;11.00;85.80;;;;;;5094881;28;20047;-88
2022/05/24 22:39:32;;;;;;;13.63;8.32;;;11.00;85.80;;;;;;5094578;28;20028;-88
2022/05/24 22:42:01;;;;;;;12.00;8.10;;;11.00;85.80;;;;;;5095855;28;20050;-88
2022/05/24 22:47:11;;;;;;;12.77;8.70;;;10.90;86.00;;;;;;5096000;28;20489;-88
2022/05/24 22:49:36;;;;;;;16.17;9.43;;;10.80;86.10;;;;;;5094258;28;20024;-88
2022/05/24 22:52:02;;;;;;;14.70;8.70;;;10.70;86.30;;;;;;5095373;28;20020;-88
2022/05/24 22:54:28;;;;;;;16.23;10.25;;;10.70;86.50;;;;;;5094299;28;20024;-88
2022/05/24 22:56:57;;;;;;;16.92;10.20;;;10.80;86.90;;;;;;5094326;28;20075;-88
2022/05/24 22:59:26;;;;;;;14.98;10.00;;;10.80;87.30;;;;;;5094516;28;20471;-88
2022/05/24 23:01:53;;;;;;;14.18;9.38;;;10.80;87.60;;;;;;5094406;28;20382;-88
2022/05/24 23:04:20;;;;;;;14.50;9.80;;;10.80;87.60;;;;;;5094189;28;20020;-88
2022/05/24 23:06:45;;;;;;;15.25;8.90;;;10.80;88.00;;;;;;5095079;28;20034;-88
2022/05/24 23:09:11;;;;;;;15.57;9.85;;;10.90;87.90;;;;;;5095179;28;20039;-88
2022/05/24 23:11:37;;;;;;;13.75;9.30;;;11.00;88.30;;;;;;5094125;28;20070;-88
2022/05/24 23:14:04;;;;;;;13.10;8.77;;;11.00;88.30;;;;;;5094092;28;20355;-88
2022/05/24 23:16:31;;;;;;;13.85;8.38;;;11.00;88.20;;;;;;5095091;28;20490;-88
2022/05/24 23:18:58;;;;;;;12.35;8.05;;;11.10;88.00;;;;;;5093487;28;20111;-88
2022/05/24 23:21:23;;;;;;;12.75;8.63;;;11.10;87.30;;;;;;5093841;28;20024;-88
2022/05/24 23:23:49;;;;;;;11.32;7.40;;;11.10;86.70;;;;;;5094888;28;20073;-88
2022/05/24 23:26:15;;;;;;;10.85;7.80;;;11.00;86.50;;;;;;5094986;28;20035;-88
2022/05/24 23:28:40;;;;;;;12.25;7.57;;;10.90;86.30;;;;;;5093660;28;20035;-88
2022/05/24 23:31:07;;;;;;;10.80;7.07;;;10.80;86.50;;;;;;5093605;28;20108;-88
2022/05/24 23:33:32;;;;;;;9.60;7.18;;;10.80;86.40;;;;;;5093464;28;20524;-89
2022/05/24 23:35:58;;;;;;;10.90;7.15;;;10.70;86.30;;;;;;5093711;28;20028;-88
2022/05/24 23:38:24;;;;;;;10.77;7.22;;;10.60;86.50;;;;;;5093614;28;20470;-88
2022/05/24 23:40:50;;;;;;;11.07;7.03;;;10.50;86.50;;;;;;5094762;28;20057;-88
2022/05/24 23:43:20;;;;;;;8.90;6.72;;;10.40;86.60;;;;;;5093794;28;20024;-88